createdAt,value
2019-04-06T00:00:59.306Z,4.70
2019-04-06T00:03:32.296Z,4.63
2019-04-06T00:06:04.422Z,4.61
2019-04-06T00:08:35.136Z,4.56
2019-04-06T00:11:06.583Z,4.49
2019-04-06T00:13:37.365Z,4.45
2019-04-06T00:16:08.119Z,4.42
2019-04-06T00:18:40.521Z,4.43
2019-04-06T00:21:12.025Z,4.39
2019-04-06T00:23:42.857Z,4.44
2019-04-06T00:26:13.632Z,4.34
2019-04-06T00:28:44.389Z,4.23
2019-04-06T00:31:34.823Z,4.26
2019-04-06T00:34:05.784Z,4.14
2019-04-06T00:36:37.086Z,4.17
2019-04-06T00:39:07.971Z,4.16
2019-04-06T00:41:38.678Z,4.10
2019-04-06T00:44:12.568Z,4.02
2019-04-06T00:46:43.690Z,4.03
2019-04-06T00:49:14.548Z,4.00
2019-04-06T00:51:45.740Z,4.02
2019-04-06T00:54:19.489Z,4.00
2019-04-06T00:56:50.238Z,3.97
2019-04-06T00:59:21.016Z,4.02
2019-04-06T01:01:52.308Z,4.04
2019-04-06T01:04:24.258Z,3.97
2019-04-06T01:06:55.064Z,3.95
2019-04-06T01:09:25.795Z,3.89
2019-04-06T01:11:56.992Z,3.88
2019-04-06T01:14:27.799Z,3.77
2019-04-06T01:16:58.978Z,3.77
2019-04-06T01:19:29.693Z,3.80
2019-04-06T01:22:00.458Z,3.83
2019-04-06T01:24:31.230Z,3.82
2019-04-06T01:27:02.196Z,3.81
2019-04-06T01:29:34.000Z,3.79
2019-04-06T01:32:04.929Z,3.79
2019-04-06T01:34:35.722Z,3.75
2019-04-06T01:37:06.405Z,3.73
2019-04-06T01:39:37.890Z,3.75
2019-04-06T01:42:08.901Z,3.75
2019-04-06T01:44:40.173Z,3.70
2019-04-06T01:47:10.952Z,3.71
2019-04-06T01:49:42.058Z,3.68
2019-04-06T01:52:12.887Z,3.73
2019-04-06T01:54:43.736Z,3.67
2019-04-06T01:57:15.778Z,3.66
2019-04-06T01:59:46.455Z,3.65
2019-04-06T02:02:27.248Z,3.57
2019-04-06T02:04:58.060Z,3.57
2019-04-06T02:07:28.790Z,3.50
2019-04-06T02:09:59.605Z,3.49
2019-04-06T02:12:30.720Z,3.51
2019-04-06T02:15:01.477Z,3.48
2019-04-06T02:17:33.385Z,3.57
2019-04-06T02:20:04.175Z,3.63
2019-04-06T02:22:35.319Z,3.66
2019-04-06T02:25:07.576Z,3.75
2019-04-06T02:27:38.319Z,3.78
2019-04-06T02:30:31.064Z,3.70
2019-04-06T02:33:23.422Z,3.67
2019-04-06T02:36:10.113Z,3.67
2019-04-06T02:38:59.759Z,3.67
2019-04-06T02:41:49.171Z,3.71
2019-04-06T02:44:19.933Z,3.75
2019-04-06T02:46:50.846Z,3.70
2019-04-06T02:49:21.660Z,3.62
2019-04-06T02:51:52.847Z,3.61
2019-04-06T02:54:24.260Z,3.60
2019-04-06T02:56:55.583Z,3.62
2019-04-06T02:59:26.929Z,3.63
2019-04-06T03:01:58.659Z,3.63
2019-04-06T03:04:33.458Z,3.68
2019-04-06T03:07:04.866Z,3.75
2019-04-06T03:09:45.799Z,3.83
2019-04-06T03:12:19.388Z,3.84
2019-04-06T03:14:51.495Z,3.73
2019-04-06T03:17:25.195Z,3.77
2019-04-06T03:19:57.147Z,3.69
2019-04-06T03:22:29.210Z,3.66
2019-04-06T03:25:00.432Z,3.65
2019-04-06T03:27:31.845Z,3.65
2019-04-06T03:30:03.463Z,3.59
2019-04-06T03:32:35.216Z,3.56
2019-04-06T03:35:06.789Z,3.54
2019-04-06T03:37:38.528Z,3.61
2019-04-06T03:40:09.977Z,3.65
2019-04-06T03:42:46.066Z,3.65
2019-04-06T03:45:17.486Z,3.62
2019-04-06T03:47:49.550Z,3.54
2019-04-06T03:50:23.642Z,3.50
2019-04-06T03:53:01.427Z,3.43
2019-04-06T03:55:32.833Z,3.45
2019-04-06T03:58:05.716Z,3.48
2019-04-06T04:00:39.799Z,3.41
2019-04-06T04:03:11.505Z,3.29
2019-04-06T04:05:42.802Z,3.28
2019-04-06T04:08:15.377Z,3.32
2019-04-06T04:10:47.848Z,3.32
2019-04-06T04:13:20.167Z,3.27
2019-04-06T04:15:51.638Z,3.25
2019-04-06T04:18:22.792Z,3.28
2019-04-06T04:20:55.174Z,3.27
2019-04-06T04:23:26.360Z,3.33
2019-04-06T04:25:58.092Z,3.44
2019-04-06T04:28:29.752Z,3.34
2019-04-06T04:31:01.398Z,3.27
2019-04-06T04:33:32.672Z,3.32
2019-04-06T04:36:03.788Z,3.27
2019-04-06T04:38:37.074Z,3.21
2019-04-06T04:41:08.330Z,3.16
2019-04-06T04:43:40.052Z,3.16
2019-04-06T04:46:11.086Z,3.09
2019-04-06T04:48:42.230Z,3.06
2019-04-06T04:51:14.691Z,3.07
2019-04-06T04:53:46.965Z,3.07
2019-04-06T04:56:18.305Z,3.04
2019-04-06T04:58:49.448Z,3.06
2019-04-06T05:01:22.002Z,3.09
2019-04-06T05:03:54.133Z,3.12
2019-04-06T05:06:25.718Z,3.11
2019-04-06T05:08:57.199Z,3.10
2019-04-06T05:11:28.721Z,3.13
2019-04-06T05:14:35.230Z,3.15
2019-04-06T05:17:06.601Z,3.22
2019-04-06T05:19:38.160Z,3.24
2019-04-06T05:22:09.506Z,3.21
2019-04-06T05:24:42.005Z,3.26
2019-04-06T05:27:13.577Z,3.33
2019-04-06T05:29:44.830Z,3.42
2019-04-06T05:32:16.183Z,3.49
2019-04-06T05:34:47.566Z,3.57
2019-04-06T05:37:18.875Z,3.56
2019-04-06T05:39:50.599Z,3.56
2019-04-06T05:42:21.790Z,3.69
2019-04-06T05:44:55.085Z,3.81
2019-04-06T05:47:27.633Z,3.93
2019-04-06T05:49:59.271Z,4.05
2019-04-06T05:52:30.925Z,4.18
2019-04-06T05:55:04.991Z,4.28
2019-04-06T05:57:37.259Z,4.41
2019-04-06T06:00:17.504Z,4.58
2019-04-06T06:03:41.680Z,4.76
2019-04-06T06:06:48.777Z,4.98
2019-04-06T06:09:26.138Z,5.18
2019-04-06T06:12:12.439Z,5.42
2019-04-06T06:14:50.116Z,5.61
2019-04-06T06:17:24.659Z,5.80
2019-04-06T06:19:55.396Z,5.94
2019-04-06T06:22:27.014Z,6.14
2019-04-06T06:24:58.854Z,6.31
2019-04-06T06:27:29.831Z,6.50
2019-04-06T06:30:04.753Z,6.70
2019-04-06T06:32:35.488Z,6.87
2019-04-06T06:35:06.577Z,7.11
2019-04-06T06:37:37.721Z,7.33
2019-04-06T06:40:09.188Z,7.50
2019-04-06T06:42:39.958Z,7.70
2019-04-06T06:45:10.635Z,7.96
2019-04-06T06:47:41.467Z,8.20
2019-04-06T06:50:15.071Z,8.41
2019-04-06T06:52:46.451Z,8.62
2019-04-06T06:55:20.215Z,8.81
2019-04-06T06:57:52.616Z,8.99
2019-04-06T07:00:23.361Z,9.18
2019-04-06T07:02:54.031Z,9.40
2019-04-06T07:05:25.719Z,9.50
2019-04-06T07:07:59.251Z,9.66
2019-04-06T07:10:29.883Z,9.86
2019-04-06T07:13:00.734Z,10.04
2019-04-06T07:15:34.422Z,10.19
2019-04-06T07:18:06.182Z,10.38
2019-04-06T07:20:36.959Z,10.47
2019-04-06T07:23:07.760Z,10.60
2019-04-06T07:25:38.937Z,10.78
2019-04-06T07:28:10.260Z,10.96
2019-04-06T07:30:41.201Z,11.08
2019-04-06T07:33:12.176Z,11.23
2019-04-06T07:35:43.029Z,11.34
2019-04-06T07:38:17.768Z,11.47
2019-04-06T07:40:49.079Z,11.60
2019-04-06T07:43:20.424Z,11.77
2019-04-06T07:45:51.338Z,11.96
2019-04-06T07:48:22.119Z,12.07
2019-04-06T07:50:54.163Z,12.23
2019-04-06T07:53:25.133Z,12.31
2019-04-06T07:55:57.123Z,12.54
2019-04-06T07:58:29.311Z,12.56
2019-04-06T08:01:00.386Z,12.56
2019-04-06T08:03:33.606Z,12.68
2019-04-06T08:06:07.451Z,12.78
2019-04-06T08:08:38.362Z,12.80
2019-04-06T08:11:18.045Z,12.88
2019-04-06T08:13:49.494Z,13.00
2019-04-06T08:16:20.374Z,13.07
2019-04-06T08:18:51.051Z,13.08
2019-04-06T08:21:22.037Z,13.17
2019-04-06T08:23:55.903Z,13.30
2019-04-06T08:26:26.578Z,13.44
2019-04-06T08:29:01.398Z,13.59
2019-04-06T08:31:29.779Z,13.74
2019-04-06T08:34:06.354Z,13.84
2019-04-06T08:36:39.273Z,13.92
2019-04-06T08:39:12.916Z,14.04
2019-04-06T08:41:43.609Z,14.22
2019-04-06T08:44:18.502Z,14.27
2019-04-06T08:46:49.177Z,14.25
2019-04-06T08:49:22.387Z,14.08
2019-04-06T08:52:07.871Z,14.12
2019-04-06T08:54:38.658Z,14.22
2019-04-06T08:57:16.430Z,14.51
2019-04-06T08:59:47.101Z,14.78
2019-04-06T09:02:18.808Z,15.02
2019-04-06T09:04:54.091Z,15.17
2019-04-06T09:07:25.126Z,15.32
2019-04-06T09:09:55.844Z,15.23
2019-04-06T09:12:29.072Z,15.23
2019-04-06T09:15:00.132Z,15.27
2019-04-06T09:17:30.950Z,15.37
2019-04-06T09:20:14.624Z,15.74
2019-04-06T09:22:42.939Z,15.51
2019-04-06T09:25:18.115Z,15.81
2019-04-06T09:27:53.371Z,16.22
2019-04-06T09:30:43.461Z,16.53
2019-04-06T09:33:18.105Z,16.84
2019-04-06T09:35:49.018Z,17.11
2019-04-06T09:38:32.275Z,17.19
2019-04-06T09:41:15.179Z,17.56
2019-04-06T09:43:49.301Z,17.68
2019-04-06T09:46:41.609Z,17.98
2019-04-06T09:49:40.981Z,17.76
2019-04-06T09:52:30.516Z,17.31
2019-04-06T09:55:23.338Z,17.40
2019-04-06T09:58:27.750Z,17.38
2019-04-06T10:01:06.046Z,17.84
2019-04-06T10:03:52.353Z,18.21
2019-04-06T10:06:46.643Z,18.26
2019-04-06T10:09:42.283Z,18.54
2019-04-06T10:12:40.116Z,19.00
2019-04-06T10:15:36.128Z,19.40
2019-04-06T10:18:28.431Z,19.43
2019-04-06T10:21:23.839Z,18.73
2019-04-06T10:24:20.061Z,18.20
2019-04-06T10:27:14.412Z,17.53
2019-04-06T10:30:07.891Z,17.08
2019-04-06T10:33:05.562Z,17.61
2019-04-06T10:35:58.275Z,18.08
2019-04-06T10:39:08.052Z,18.73
2019-04-06T10:42:00.094Z,18.31
2019-04-06T10:44:54.352Z,18.59
2019-04-06T10:47:39.040Z,19.25
2019-04-06T10:51:03.331Z,19.61
2019-04-06T10:53:48.575Z,19.88
2019-04-06T10:56:46.964Z,19.74
2019-04-06T10:59:59.862Z,19.96
2019-04-06T11:02:39.279Z,19.94
2019-04-06T11:05:35.512Z,20.60
2019-04-06T11:08:23.555Z,21.03
2019-04-06T11:11:08.087Z,21.31
2019-04-06T11:14:09.770Z,21.10
2019-04-06T11:20:44.271Z,20.46
2019-04-06T11:23:34.314Z,19.80
2019-04-06T11:26:39.370Z,19.60
2019-04-06T11:29:35.745Z,19.91
2019-04-06T11:32:33.207Z,19.87
2019-04-06T11:35:29.216Z,19.76
2019-04-06T11:38:36.142Z,19.87
2019-04-06T11:41:25.869Z,19.60
2019-04-06T11:44:08.969Z,19.14
2019-04-06T11:46:58.748Z,19.48
2019-04-06T11:50:01.132Z,19.22
2019-04-06T11:53:05.434Z,19.31
2019-04-06T11:56:00.624Z,19.45
2019-04-06T11:58:44.749Z,19.07
2019-04-06T12:01:50.872Z,19.29
2019-04-06T12:04:43.062Z,19.12
2019-04-06T12:07:30.594Z,18.81
2019-04-06T12:10:27.380Z,18.72
2019-04-06T12:13:23.319Z,18.50
2019-04-06T12:16:07.349Z,18.37
2019-04-06T12:18:47.407Z,18.35
2019-04-06T12:21:44.334Z,18.51
2019-04-06T12:24:33.736Z,18.59
2019-04-06T12:27:15.209Z,18.36
2019-04-06T12:30:13.118Z,17.89
2019-04-06T12:33:33.871Z,17.58
2019-04-06T12:36:18.744Z,17.49
2019-04-06T12:39:06.680Z,17.39
2019-04-06T12:42:06.703Z,17.27
2019-04-06T12:44:55.122Z,17.56
2019-04-06T12:47:45.051Z,17.54
2019-04-06T12:50:27.868Z,17.75
2019-04-06T12:53:23.967Z,17.93
2019-04-06T12:56:28.603Z,17.70
2019-04-06T12:59:48.149Z,17.46
2019-04-06T13:02:28.998Z,17.21
2019-04-06T13:05:17.081Z,17.16
2019-04-06T13:08:06.969Z,17.21
2019-04-06T13:10:55.733Z,17.20
2019-04-06T13:13:44.329Z,16.99
2019-04-06T13:16:36.214Z,16.83
2019-04-06T13:19:37.131Z,16.77
2019-04-06T13:22:33.881Z,16.71
2019-04-06T13:25:17.678Z,16.71
2019-04-06T13:28:22.481Z,16.75
2019-04-06T13:31:19.789Z,16.79
2019-04-06T13:34:14.600Z,16.79
2019-04-06T13:37:08.632Z,16.75
2019-04-06T13:39:52.114Z,16.74
2019-04-06T13:42:52.972Z,16.94
2019-04-06T13:45:45.286Z,17.37
2019-04-06T13:48:37.733Z,17.63
2019-04-06T13:51:30.851Z,17.88
2019-04-06T13:54:30.138Z,18.03
2019-04-06T13:57:12.426Z,17.96
2019-04-06T14:00:12.558Z,17.64
2019-04-06T14:03:08.507Z,17.35
2019-04-06T14:05:57.021Z,17.15
2019-04-06T14:08:48.162Z,16.93
2019-04-06T14:11:39.915Z,16.81
2019-04-06T14:14:32.185Z,16.82
2019-04-06T14:17:31.648Z,17.17
2019-04-06T14:20:21.432Z,17.59
2019-04-06T14:23:14.213Z,17.91
2019-04-06T14:26:13.486Z,18.22
2019-04-06T14:29:03.172Z,18.41
2019-04-06T14:31:51.800Z,18.17
2019-04-06T14:34:56.065Z,17.97
2019-04-06T14:37:41.338Z,17.76
2019-04-06T14:40:43.830Z,17.74
2019-04-06T14:43:39.390Z,17.97
2019-04-06T14:46:24.724Z,18.08
2019-04-06T14:49:28.945Z,18.19
2019-04-06T14:52:08.616Z,18.44
2019-04-06T14:54:54.983Z,18.58
2019-04-06T14:57:35.328Z,18.23
2019-04-06T15:00:38.752Z,17.94
2019-04-06T15:03:31.299Z,17.98
2019-04-06T15:06:21.846Z,17.89
2019-04-06T15:09:17.471Z,17.77
2019-04-06T15:12:07.019Z,17.84
2019-04-06T15:15:00.743Z,17.87
2019-04-06T15:18:01.575Z,17.73
2019-04-06T15:21:00.620Z,17.52
2019-04-06T15:23:50.426Z,17.40
2019-04-06T15:26:36.255Z,17.46
2019-04-06T15:29:24.062Z,17.68
2019-04-06T15:32:06.812Z,17.76
2019-04-06T15:35:03.336Z,17.77
2019-04-06T15:38:01.517Z,17.55
2019-04-06T15:40:55.815Z,17.29
2019-04-06T15:43:48.851Z,17.04
2019-04-06T15:46:38.695Z,16.88
2019-04-06T15:49:45.035Z,16.71
2019-04-06T15:52:34.241Z,16.60
2019-04-06T15:55:34.692Z,16.63
2019-04-06T15:58:22.847Z,16.61
2019-04-06T16:01:16.165Z,16.54
2019-04-06T16:04:08.422Z,16.40
2019-04-06T16:06:48.966Z,16.27
2019-04-06T16:09:38.972Z,16.23
2019-04-06T16:12:23.839Z,16.24
2019-04-06T16:15:16.868Z,16.37
2019-04-06T16:18:22.090Z,16.44
2019-04-06T16:21:14.484Z,16.45
2019-04-06T16:24:16.003Z,16.30
2019-04-06T16:26:56.857Z,16.14
2019-04-06T16:30:08.447Z,15.99
2019-04-06T16:32:58.490Z,15.87
2019-04-06T16:35:50.419Z,15.75
2019-04-06T16:38:46.573Z,15.77
2019-04-06T16:41:37.917Z,15.76
2019-04-06T16:44:30.726Z,15.73
2019-04-06T16:47:36.326Z,15.69
2019-04-06T16:50:35.308Z,15.61
2019-04-06T16:53:33.086Z,15.54
2019-04-06T16:56:23.121Z,15.51
2019-04-06T16:59:03.510Z,15.51
2019-04-06T17:01:59.619Z,15.46
2019-04-06T17:05:01.680Z,15.40
2019-04-06T17:08:08.789Z,15.41
2019-04-06T17:10:53.034Z,15.35
2019-04-06T17:13:54.430Z,15.32
2019-04-06T17:17:11.913Z,15.37
2019-04-06T17:20:06.788Z,15.33
2019-04-06T17:22:56.382Z,15.31
2019-04-06T17:25:46.350Z,15.23
2019-04-06T17:28:35.955Z,15.16
2019-04-06T17:31:21.877Z,15.07
2019-04-06T17:34:21.148Z,14.94
2019-04-06T17:37:15.525Z,14.88
2019-04-06T17:40:22.232Z,14.78
2019-04-06T17:43:53.180Z,14.71
2019-04-06T17:46:58.444Z,14.62
2019-04-06T17:49:58.703Z,14.52
2019-04-06T17:52:49.391Z,14.36
2019-04-06T17:55:38.651Z,14.15
2019-04-06T18:02:01.117Z,13.74
2019-04-06T18:05:02.160Z,13.50
2019-04-06T18:08:01.308Z,13.26
2019-04-06T18:11:05.369Z,13.06
2019-04-06T18:14:01.265Z,12.84
2019-04-06T18:16:38.899Z,12.62
2019-04-06T18:19:10.230Z,12.47
2019-04-06T18:21:41.043Z,12.36
2019-04-06T18:24:18.005Z,12.27
2019-04-06T18:26:48.924Z,12.17
2019-04-06T18:29:28.380Z,12.06
2019-04-06T18:32:20.692Z,11.99
2019-04-06T18:34:59.298Z,11.93
2019-04-06T18:37:43.785Z,11.83
2019-04-06T18:43:16.983Z,11.67
2019-04-06T18:45:48.179Z,11.60
2019-04-06T18:48:20.989Z,11.51
2019-04-06T18:50:57.732Z,11.40
2019-04-06T18:53:28.622Z,11.29
2019-04-06T18:55:59.553Z,11.22
2019-04-06T18:58:35.526Z,11.14
2019-04-06T19:01:07.436Z,11.16
2019-04-06T19:03:41.325Z,11.23
2019-04-06T19:06:16.743Z,11.26
2019-04-06T19:08:49.005Z,11.22
2019-04-06T19:11:26.531Z,11.19
2019-04-06T19:14:03.077Z,11.22
2019-04-06T19:16:35.527Z,11.16
2019-04-06T19:19:09.254Z,11.17
2019-04-06T19:22:08.142Z,11.23
2019-04-06T19:25:07.896Z,11.24
2019-04-06T19:27:40.644Z,11.24
2019-04-06T19:30:11.624Z,11.16
2019-04-06T19:32:44.848Z,11.10
2019-04-06T19:35:20.011Z,11.10
2019-04-06T19:37:50.808Z,11.12
2019-04-06T19:40:22.631Z,11.10
2019-04-06T19:42:53.794Z,11.08
2019-04-06T19:45:24.935Z,11.10
2019-04-06T19:47:56.721Z,11.08
2019-04-06T19:50:27.687Z,11.06
2019-04-06T19:53:02.334Z,11.03
2019-04-06T19:55:33.486Z,11.04
2019-04-06T19:58:07.253Z,11.02
2019-04-06T20:00:38.408Z,10.91
2019-04-06T20:03:16.703Z,10.76
2019-04-06T20:05:50.712Z,10.59
2019-04-06T20:08:29.911Z,10.43
2019-04-06T20:11:01.067Z,10.34
2019-04-06T20:13:32.467Z,10.27
2019-04-06T20:16:06.196Z,10.18
2019-04-06T20:18:37.829Z,10.09
2019-04-06T20:21:13.468Z,10.00
2019-04-06T20:23:55.234Z,9.88
2019-04-06T20:26:32.439Z,9.83
2019-04-06T20:29:08.388Z,9.73
2019-04-06T20:31:44.585Z,9.62
2019-04-06T20:34:20.756Z,9.48
2019-04-06T20:37:02.898Z,9.40
2019-04-06T20:39:36.034Z,9.28
2019-04-06T20:42:06.998Z,9.18
2019-04-06T20:44:41.083Z,9.10
2019-04-06T20:47:15.962Z,8.96
2019-04-06T20:49:50.781Z,8.91
2019-04-06T20:52:26.336Z,8.85
2019-04-06T20:55:19.913Z,8.78
2019-04-06T20:58:13.862Z,8.73
2019-04-06T21:00:52.383Z,8.61
2019-04-06T21:03:25.495Z,8.47
2019-04-06T21:06:11.235Z,8.44
2019-04-06T21:08:44.254Z,8.39
2019-04-06T21:11:20.447Z,8.32
2019-04-06T21:13:58.295Z,8.27
2019-04-06T21:16:32.398Z,8.26
2019-04-06T21:19:05.442Z,8.24
2019-04-06T21:21:39.446Z,8.22
2019-04-06T21:24:12.499Z,8.14
2019-04-06T21:26:46.851Z,8.10
2019-04-06T21:29:31.079Z,8.03
2019-04-06T21:32:03.489Z,7.99
2019-04-06T21:34:34.965Z,8.01
2019-04-06T21:37:07.590Z,7.93
2019-04-06T21:39:39.185Z,7.89
2019-04-06T21:42:10.499Z,7.86
2019-04-06T21:44:44.224Z,7.80
2019-04-06T21:47:14.886Z,7.79
2019-04-06T21:49:55.550Z,7.77
2019-04-06T21:52:30.900Z,7.78
2019-04-06T21:55:03.715Z,7.73
2019-04-06T21:57:36.502Z,7.70
2019-04-06T22:00:12.208Z,7.68
2019-04-06T22:02:48.870Z,7.60
2019-04-06T22:05:20.135Z,7.58
2019-04-06T22:08:12.214Z,7.60
2019-04-06T22:11:00.551Z,7.58
2019-04-06T22:13:36.560Z,7.52
2019-04-06T22:16:08.775Z,7.51
2019-04-06T22:18:39.724Z,7.52
2019-04-06T22:21:10.475Z,7.44
2019-04-06T22:23:44.377Z,7.46
2019-04-06T22:26:19.376Z,7.42
2019-04-06T22:28:57.015Z,7.42
2019-04-06T22:31:29.031Z,7.38
2019-04-06T22:34:06.128Z,7.38
2019-04-06T22:36:42.611Z,7.43
2019-04-06T22:39:13.855Z,7.48
2019-04-06T22:41:48.031Z,7.63
2019-04-06T22:44:21.001Z,7.70
2019-04-06T22:46:56.773Z,7.68
2019-04-06T22:49:28.361Z,7.67
2019-04-06T22:52:02.277Z,7.61
2019-04-06T22:54:34.749Z,7.56
2019-04-06T22:57:06.373Z,7.63
2019-04-06T22:59:43.121Z,7.71
2019-04-06T23:02:15.836Z,7.69
2019-04-06T23:04:56.017Z,7.72
2019-04-06T23:07:30.398Z,7.67
2019-04-06T23:10:02.241Z,7.54
2019-04-06T23:12:34.279Z,7.45
2019-04-06T23:15:06.065Z,7.32
2019-04-06T23:17:36.926Z,7.28
2019-04-06T23:20:08.412Z,7.11
2019-04-06T23:22:39.262Z,7.08
2019-04-06T23:25:10.630Z,7.07
2019-04-06T23:27:44.334Z,7.02
2019-04-06T23:30:15.780Z,6.98
2019-04-06T23:32:48.995Z,6.90
2019-04-06T23:35:22.044Z,6.86
2019-04-06T23:37:53.009Z,6.84
2019-04-06T23:40:23.731Z,6.85
2019-04-06T23:42:55.258Z,6.87
2019-04-06T23:45:30.078Z,6.82
2019-04-06T23:48:02.807Z,6.81
2019-04-06T23:50:35.900Z,6.72
2019-04-06T23:53:09.709Z,6.62
2019-04-06T23:55:42.208Z,6.62
2019-04-06T23:58:15.747Z,6.61
